^^
MeteoGriva-Weather Station Historical Data
Daily Summary for August 04, 2020 Units:  Metric    English   Both
Daily Weekly Monthly Yearly Custom
  High: Low: Average:
Temperature: 29.3 °C 20.4 °C 24.3 °C
Dew Point: 25.7 °C 18.4 °C 22.3 °C
Humidity: 99% 80.2% 89%
Wind Speed: 12.6km/h 0km/h 4.3km/h
Wind Gust: 28km/h - -
Wind- - South
Pressure: 1008.1 hPa 0.0 hPa -
Precipitation: 0.0 mm    
Historical Graphs
 
 
Tabular Data for August 04, 2020
Time Temperature Dew Point Pressure Wind Wind Speed Wind Gust Humidity Rainfall Rate (Hourly) solar
00:04 22.7 °C 19.5 °C 1007.5 hPa SSW 7.9 km/h 20.1 km/h 82% 0.0 mm 0 W/m2
00:09 22.7 °C 19.5 °C 1007.5 hPa South 8.2 km/h 20.1 km/h 82% 0.0 mm 0 W/m2
00:14 22.7 °C 19.5 °C 1007.5 hPa SSW 7.5 km/h 20.1 km/h 82% 0.0 mm 0 W/m2
00:19 22.7 °C 19.5 °C 1007.5 hPa South 6.7 km/h 16.3 km/h 82% 0.0 mm 0 W/m2
00:24 22.7 °C 19.5 °C 1007.5 hPa South 8.3 km/h 16.3 km/h 82% 0.0 mm 0 W/m2
00:29 22.7 °C 19.5 °C 1007.5 hPa South 8.5 km/h 16.3 km/h 81.8% 0.0 mm 0 W/m2
00:34 22.7 °C 19.5 °C 1007.5 hPa South 5 km/h 12.2 km/h 81.9% 0.0 mm 0 W/m2
00:39 22.6 °C 19.4 °C 1007.5 hPa South 6.6 km/h 16.3 km/h 82% 0.0 mm 0 W/m2
00:44 22.6 °C 19.3 °C 1007.5 hPa South 5.6 km/h 16.3 km/h 82% 0.0 mm 0 W/m2
00:49 22.6 °C 19.5 °C 1007.5 hPa South 4.9 km/h 16.3 km/h 82.8% 0.0 mm 0 W/m2
00:54 22.5 °C 19.6 °C 1007.5 hPa South 6.3 km/h 16.3 km/h 83.3% 0.0 mm 0 W/m2
00:59 22.5 °C 19.9 °C 1007.5 hPa South 3.6 km/h 12.2 km/h 84.8% 0.0 mm 0 W/m2
01:04 22.4 °C 19.9 °C 1007.8 hPa South 3 km/h 12.2 km/h 85.9% 0.0 mm 0 W/m2
01:09 22.4 °C 19.9 °C 1007.8 hPa South 5 km/h 12.2 km/h 86.1% 0.0 mm 0 W/m2
01:14 22.3 °C 20.1 °C 1007.5 hPa South 5.3 km/h 12.2 km/h 87% 0.0 mm 0 W/m2
01:19 22.3 °C 20 °C 1007.5 hPa South 5.9 km/h 12.2 km/h 87.1% 0.0 mm 0 W/m2
01:24 22.1 °C 20 °C 1007.5 hPa South 5.3 km/h 16.3 km/h 87.7% 0.0 mm 0 W/m2
01:29 22.1 °C 20 °C 1007.5 hPa South 4.2 km/h 12.2 km/h 88% 0.0 mm 0 W/m2
01:34 22.1 °C 20 °C 1007.5 hPa South 4.9 km/h 16.3 km/h 87.8% 0.0 mm 0 W/m2
01:39 22.1 °C 19.9 °C 1007.5 hPa South 3.6 km/h 12.2 km/h 87.4% 0.0 mm 0 W/m2
01:44 22 °C 19.9 °C 1007.5 hPa South 5.9 km/h 12.2 km/h 88% 0.0 mm 0 W/m2
01:49 22 °C 19.9 °C 1007.5 hPa South 6 km/h 16.3 km/h 88% 0.0 mm 0 W/m2
01:54 22 °C 19.7 °C 1007.5 hPa SSE 4 km/h 16.3 km/h 87.2% 0.0 mm 0 W/m2
01:59 22 °C 19.5 °C 1007.5 hPa South 6.3 km/h 16.3 km/h 85.6% 0.0 mm 0 W/m2
02:04 22.3 °C 19.5 °C 1007.5 hPa South 5.7 km/h 20.1 km/h 84% 0.0 mm 0 W/m2
02:09 22.2 °C 19.4 °C 1007.5 hPa SSW 6.8 km/h 20.1 km/h 83.7% 0.0 mm 0 W/m2
02:14 22.3 °C 19.4 °C 1007.5 hPa South 4.5 km/h 12.2 km/h 83.6% 0.0 mm 0 W/m2
02:19 22.3 °C 19.5 °C 1007.5 hPa South 3.7 km/h 12.2 km/h 84% 0.0 mm 0 W/m2
02:24 22.2 °C 19.3 °C 1007.5 hPa South 7.6 km/h 16.3 km/h 83.4% 0.0 mm 0 W/m2
02:29 22.2 °C 19.3 °C 1007.5 hPa SSW 3.6 km/h 16.3 km/h 83.3% 0.0 mm 0 W/m2
02:34 22.2 °C 19.3 °C 1007.5 hPa South 4.9 km/h 16.3 km/h 83.6% 0.0 mm 0 W/m2
02:39 22.2 °C 19.3 °C 1007.5 hPa South 2.7 km/h 12.2 km/h 83.6% 0.0 mm 0 W/m2
02:44 22.3 °C 19.3 °C 1007.5 hPa South 5.2 km/h 12.2 km/h 83% 0.0 mm 0 W/m2
02:49 22.3 °C 19.2 °C 1007.5 hPa South 4.4 km/h 12.2 km/h 82.8% 0.0 mm 0 W/m2
02:54 22.3 °C 19.1 °C 1007.5 hPa South 4.8 km/h 12.2 km/h 82.2% 0.0 mm 0 W/m2
02:59 22.3 °C 19.1 °C 1007.5 hPa South 4.8 km/h 12.2 km/h 82% 0.0 mm 0 W/m2
03:04 22.3 °C 19.1 °C 1007.5 hPa South 6.5 km/h 16.3 km/h 82% 0.0 mm 0 W/m2
03:09 22.3 °C 18.9 °C 1007.5 hPa South 1.6 km/h 16.3 km/h 81.1% 0.0 mm 0 W/m2
03:14 22.3 °C 19 °C 1007.5 hPa South 0.9 km/h 12.2 km/h 81.3% 0.0 mm 0 W/m2
03:19 22.2 °C 19 °C 1007.5 hPa South 1.4 km/h 7.9 km/h 81.8% 0.0 mm 0 W/m2
03:24 22.2 °C 18.9 °C 1007.5 hPa SSE 0.9 km/h 7.9 km/h 81.3% 0.0 mm 0 W/m2
03:29 22.1 °C 19.1 °C 1007.5 hPa South 0.2 km/h 4 km/h 82.7% 0.0 mm 0 W/m2
03:34 22.1 °C 19.1 °C 1007.5 hPa Calm     83% 0.0 mm 0 W/m2
03:39 22 °C 19.1 °C 1007.5 hPa SSW 0.2 km/h 4 km/h 83.1% 0.0 mm 0 W/m2
03:44 21.9 °C 18.9 °C 1007.5 hPa South 0.7 km/h 4 km/h 83% 0.0 mm 0 W/m2
03:49 21.9 °C 18.9 °C 1007.5 hPa Calm   7.9 km/h 83% 0.0 mm 0 W/m2
03:54 21.9 °C 18.9 °C 1007.5 hPa SE 0.4 km/h 7.9 km/h 83% 0.0 mm 0 W/m2
03:59 21.9 °C 18.9 °C 1007.5 hPa Calm   4 km/h 83% 0.0 mm 0 W/m2
04:04 22.1 °C 19.1 °C 1007.1 hPa Calm     83% 0.0 mm 0 W/m2
04:09 22.1 °C 19.2 °C 1007.1 hPa Calm     83.4% 0.0 mm 0 W/m2
04:14 22.1 °C 19.1 °C 1007.1 hPa Calm     83% 0.0 mm 0 W/m2
04:19 22 °C 19 °C 1007.1 hPa Calm     83% 0.0 mm 0 W/m2
04:24 21.6 °C 19.2 °C 1007.1 hPa Calm     86.4% 0.0 mm 0 W/m2
04:29 21.5 °C 19.4 °C 1007.1 hPa Calm     88% 0.0 mm 0 W/m2
04:34 21.4 °C 19.4 °C 1007.1 hPa Calm     88.7% 0.0 mm 0 W/m2
04:39 21.3 °C 19.4 °C 1007.1 hPa Calm     89% 0.0 mm 0 W/m2
04:44 21 °C 19 °C 1007.1 hPa Calm     88.6% 0.0 mm 0 W/m2
04:49 20.9 °C 18.8 °C 1006.8 hPa Calm     88% 0.0 mm 0 W/m2
04:54 20.9 °C 18.7 °C 1006.8 hPa Calm     86.7% 0.0 mm 0 W/m2
04:59 20.9 °C 18.4 °C 1006.8 hPa Calm     85.5% 0.0 mm 0 W/m2
05:04 21.2 °C 18.5 °C 1006.8 hPa Calm     84.6% 0.0 mm 0 W/m2
05:09 21.2 °C 18.6 °C 1006.8 hPa Calm     85.2% 0.0 mm 0 W/m2
05:14 21.2 °C 18.8 °C 1006.8 hPa Calm     86.1% 0.0 mm 0 W/m2
05:19 21.2 °C 18.9 °C 1007.1 hPa Calm     87% 0.0 mm 0 W/m2
05:24 21 °C 18.9 °C 1006.8 hPa Calm     87.8% 0.0 mm 0 W/m2
05:29 20.9 °C 19.2 °C 1006.8 hPa Calm     89.8% 0.0 mm 0 W/m2
05:34 20.9 °C 19.4 °C 1006.8 hPa Calm     91.2% 0.0 mm 0 W/m2
05:39 20.9 °C 19.6 °C 1007.1 hPa Calm     92% 0.0 mm 0 W/m2
05:44 20.7 °C 19.5 °C 1007.1 hPa Calm     93.1% 0.0 mm 0 W/m2
05:49 20.6 °C 20 °C 1007.1 hPa Calm     96.7% 0.0 mm 0 W/m2
05:54 20.6 °C 20.2 °C 1007.1 hPa Calm     97.7% 0.0 mm 0 W/m2
05:59 20.6 °C 20.4 °C 1007.1 hPa Calm     99% 0.0 mm 0 W/m2
06:04 20.7 °C 20.5 °C 1007.1 hPa Calm     99% 0.0 mm 0 W/m2
06:09 20.7 °C 20.5 °C 1006.8 hPa Calm     99% 0.0 mm 0 W/m2
06:14 20.7 °C 20.5 °C 1007.1 hPa Calm     99% 0.0 mm 0 W/m2
06:19 20.6 °C 20.4 °C 1007.1 hPa Calm     99% 0.0 mm 0 W/m2
06:24 20.5 °C 20.3 °C 1007.1 hPa Calm     99% 0.0 mm 0 W/m2
06:29 20.4 °C 20.2 °C 1007.1 hPa Calm     99% 0.0 mm 0 W/m2
06:34 20.4 °C 20.2 °C 1007.1 hPa Calm     99% 0.0 mm 3 W/m2
06:39 20.4 °C 20.2 °C 1007.1 hPa Calm     99% 0.0 mm 6 W/m2
06:44 20.5 °C 20.3 °C 1007.1 hPa Calm     99% 0.0 mm 11 W/m2
06:49 20.6 °C 20.4 °C 1007.1 hPa Calm     99% 0.0 mm 20 W/m2
06:54 20.6 °C 20.4 °C 1007.5 hPa Calm     99% 0.0 mm 28 W/m2
06:59 20.6 °C 20.4 °C 1007.1 hPa Calm     99% 0.0 mm 39 W/m2
07:04 21 °C 20.7 °C 1007.5 hPa Calm     99% 0.0 mm 52 W/m2
07:09 21.1 °C 20.9 °C 1007.1 hPa Calm     99% 0.0 mm 66 W/m2
07:14 21.1 °C 20.9 °C 1007.5 hPa Calm     99% 0.0 mm 83 W/m2
07:19 21.2 °C 21 °C 1007.5 hPa Calm     99% 0.0 mm 94 W/m2
07:24 21.4 °C 21.3 °C 1007.5 hPa Calm     99% 0.0 mm 105 W/m2
07:29 21.6 °C 21.4 °C 1007.5 hPa Calm     99% 0.0 mm 100 W/m2
07:34 21.5 °C 21.3 °C 1007.5 hPa Calm     99% 0.0 mm 99 W/m2
07:39 21.5 °C 21.3 °C 1007.5 hPa Calm     99% 0.0 mm 90 W/m2
07:44 21.4 °C 21.1 °C 1007.5 hPa Calm     99% 0.0 mm 130 W/m2
07:49 21.2 °C 21 °C 1007.5 hPa Calm     99% 0.0 mm 158 W/m2
07:54 21.3 °C 21.1 °C 1007.5 hPa Calm     99% 0.0 mm 196 W/m2
07:59 21.5 °C 21.3 °C 1007.5 hPa Calm     99% 0.0 mm 209 W/m2
08:04 22.8 °C 22.4 °C 1007.5 hPa Calm     97.9% 0.0 mm 222 W/m2
08:09 24.1 °C 23.5 °C 1007.5 hPa Calm     96.4% 0.0 mm 233 W/m2
08:14 24.1 °C 23.7 °C 1007.5 hPa Calm     97.3% 0.0 mm 233 W/m2
08:19 24.1 °C 23.4 °C 1007.5 hPa Calm     95.8% 0.0 mm 238 W/m2
08:24 24.2 °C 23.6 °C 1007.5 hPa Calm     96.6% 0.0 mm 247 W/m2
08:29 24.2 °C 23.4 °C 1007.8 hPa Calm     95.6% 0.0 mm 254 W/m2
08:34 24.2 °C 23.3 °C 1007.5 hPa Calm     94.6% 0.0 mm 266 W/m2
08:39 24.3 °C 23.4 °C 1007.8 hPa SSE 0.5 km/h 7.9 km/h 95% 0.0 mm 312 W/m2
08:44 24 °C 23.6 °C 1007.5 hPa SE 0.2 km/h 4 km/h 97.7% 0.0 mm 284 W/m2
08:49 23.7 °C 23.3 °C 1007.5 hPa Calm     97.7% 0.0 mm 220 W/m2
08:54 23.7 °C 23.1 °C 1007.8 hPa Calm     96.2% 0.0 mm 131 W/m2
08:59 23.7 °C 23.2 °C 1007.5 hPa Calm     96.7% 0.0 mm 124 W/m2
09:04 23.5 °C 23.3 °C 1007.5 hPa Calm     98.3% 0.0 mm 197 W/m2
09:09 23.3 °C 22.7 °C 1007.5 hPa Calm     96.7% 0.0 mm 293 W/m2
09:14 23.3 °C 22.1 °C 1007.5 hPa Calm     92.7% 0.0 mm 308 W/m2
09:19 23.5 °C 21.7 °C 1007.5 hPa Calm     89.3% 0.0 mm 320 W/m2
09:24 24.5 °C 22.5 °C 1007.5 hPa ESE 0.4 km/h 7.9 km/h 88.3% 0.0 mm 331 W/m2
09:29 25.8 °C 23.8 °C 1007.5 hPa SE 2.3 km/h 7.9 km/h 89% 0.0 mm 338 W/m2
09:34 25.6 °C 23.2 °C 1007.5 hPa Calm   4 km/h 86.6% 0.0 mm 353 W/m2
09:39 25.6 °C 22.9 °C 1007.5 hPa SE 0.3 km/h 7.9 km/h 85.1% 0.0 mm 380 W/m2
09:44 25.8 °C 22.9 °C 1007.5 hPa SSE 2.1 km/h 12.2 km/h 83.9% 0.0 mm 383 W/m2
09:49 26.1 °C 23.2 °C 1007.5 hPa SE 2.8 km/h 12.2 km/h 83.8% 0.0 mm 396 W/m2
09:54 26.1 °C 23.3 °C 1007.8 hPa SE 1.2 km/h 16.3 km/h 84.7% 0.0 mm 403 W/m2
09:59 26 °C 23.3 °C 1007.8 hPa SE 1.2 km/h 7.9 km/h 84.7% 0.0 mm 236 W/m2
10:04 25.9 °C 23 °C 1007.5 hPa South 3.8 km/h 12.2 km/h 84.2% 0.0 mm 417 W/m2
10:09 25.9 °C 22.6 °C 1007.5 hPa SSE 2.6 km/h 12.2 km/h 81.9% 0.0 mm 430 W/m2
10:14 25.9 °C 22.7 °C 1007.5 hPa SE 1.5 km/h 7.9 km/h 82.3% 0.0 mm 283 W/m2
10:19 25.9 °C 22.9 °C 1007.5 hPa SSE 2.6 km/h 12.2 km/h 83.3% 0.0 mm 297 W/m2
10:24 25.7 °C 23.1 °C 1007.5 hPa SSE 4 km/h 12.2 km/h 85.8% 0.0 mm 230 W/m2
10:29 25.3 °C 22.4 °C 1007.5 hPa South 4.1 km/h 12.2 km/h 84.2% 0.0 mm 468 W/m2
10:34 25.3 °C 22.2 °C 1007.5 hPa SSE 4.1 km/h 16.3 km/h 82.9% 0.0 mm 479 W/m2
10:39 25.5 °C 22.5 °C 1007.5 hPa SSE 2.6 km/h 16.3 km/h 83.8% 0.0 mm 487 W/m2
10:44 25.5 °C 22.8 °C 1007.5 hPa SE 3.5 km/h 12.2 km/h 85% 0.0 mm 342 W/m2
10:49 25.6 °C 23 °C 1007.5 hPa SSE 5.5 km/h 16.3 km/h 85.3% 0.0 mm 418 W/m2
10:54 25.6 °C 23.2 °C 1007.5 hPa South 3.9 km/h 16.3 km/h 86.6% 0.0 mm 535 W/m2
10:59 25.6 °C 23 °C 1007.5 hPa SSE 6.7 km/h 16.3 km/h 85.6% 0.0 mm 523 W/m2
11:04 25.8 °C 23.4 °C 1007.5 hPa SSE 7.3 km/h 16.3 km/h 86.8% 0.0 mm 572 W/m2
11:09 26.1 °C 23.7 °C 1007.5 hPa South 6 km/h 16.3 km/h 86.9% 0.0 mm 554 W/m2
11:14 26 °C 23.8 °C 1007.5 hPa SSE 5 km/h 16.3 km/h 87.6% 0.0 mm 244 W/m2
11:19 26 °C 23.8 °C 1007.5 hPa South 3.7 km/h 12.2 km/h 87.8% 0.0 mm 232 W/m2
11:24 25.8 °C 23.8 °C 1007.5 hPa South 6.6 km/h 20.1 km/h 88.7% 0.0 mm 287 W/m2
11:29 25.1 °C 23.4 °C 1007.5 hPa South 8.2 km/h 20.1 km/h 90.6% 0.0 mm 207 W/m2
11:34 25.1 °C 23.4 °C 1007.5 hPa SSE 5 km/h 16.3 km/h 90.6% 0.0 mm 252 W/m2
11:39 25 °C 23.3 °C 1007.5 hPa SSE 6.1 km/h 16.3 km/h 90.7% 0.0 mm 257 W/m2
11:44 25.1 °C 23.2 °C 1007.5 hPa SSE 7.8 km/h 16.3 km/h 89.7% 0.0 mm 344 W/m2
11:49 25.4 °C 23.5 °C 1007.5 hPa SSE 7.9 km/h 20.1 km/h 88.9% 0.0 mm 314 W/m2
11:54 25.4 °C 23.5 °C 1007.5 hPa SSE 8.6 km/h 16.3 km/h 89% 0.0 mm 301 W/m2
11:59 25.3 °C 23.4 °C 1007.5 hPa South 9.1 km/h 16.3 km/h 89% 0.0 mm 311 W/m2
12:04 25.3 °C 23.4 °C 1007.5 hPa South 7.5 km/h 20.1 km/h 88.9% 0.0 mm 269 W/m2
12:09 25.2 °C 23.2 °C 1007.5 hPa South 8.3 km/h 20.1 km/h 88.3% 0.0 mm 261 W/m2
12:14 25.3 °C 23.2 °C 1007.5 hPa South 8.5 km/h 16.3 km/h 87.9% 0.0 mm 274 W/m2
12:19 25.3 °C 23.2 °C 1007.1 hPa South 7.7 km/h 16.3 km/h 87.9% 0.0 mm 272 W/m2
12:24 25.3 °C 23.2 °C 1007.5 hPa SSE 8.2 km/h 16.3 km/h 87.8% 0.0 mm 347 W/m2
12:29 25.6 °C 23.5 °C 1007.5 hPa South 7.7 km/h 16.3 km/h 88.4% 0.0 mm 333 W/m2
12:34 25.6 °C 23.5 °C 1007.1 hPa SSE 10.6 km/h 20.1 km/h 88.3% 0.0 mm 512 W/m2
12:39 25.7 °C 23.4 °C 1007.1 hPa SSE 7.2 km/h 20.1 km/h 87.4% 0.0 mm 391 W/m2
12:44 25.7 °C 23.5 °C 1006.8 hPa SSE 7.9 km/h 16.3 km/h 87.1% 0.0 mm 436 W/m2
12:49 26.3 °C 24 °C 1007.1 hPa SSE 11 km/h 24.1 km/h 86.8% 0.0 mm 634 W/m2
12:54 26.3 °C 23.9 °C 1006.8 hPa SSE 8.1 km/h 20.1 km/h 86.7% 0.0 mm 659 W/m2
12:59 26.4 °C 23.8 °C 1007.1 hPa SSE 8.7 km/h 20.1 km/h 85.5% 0.0 mm 623 W/m2
13:04 26.5 °C 23.7 °C 1006.8 hPa SSE 9.9 km/h 24.1 km/h 84.2% 0.0 mm 678 W/m2
13:09 27.6 °C 24.6 °C 1006.8 hPa SSE 9.5 km/h 20.1 km/h 83.8% 0.0 mm 653 W/m2
13:14 27.6 °C 24.6 °C 1006.8 hPa South 9 km/h 24.1 km/h 84% 0.0 mm 662 W/m2
13:19 27.6 °C 24.3 °C 1006.4 hPa South 4.5 km/h 20.1 km/h 82.8% 0.0 mm 349 W/m2
13:24 27.6 °C 24.5 °C 1006.4 hPa South 7.9 km/h 20.1 km/h 83.6% 0.0 mm 627 W/m2
13:29 27.5 °C 24.3 °C 1006.4 hPa South 7.3 km/h 20.1 km/h 82.8% 0.0 mm 589 W/m2
13:34 27.5 °C 24.4 °C 1006.4 hPa SSE 7.9 km/h 20.1 km/h 83% 0.0 mm 681 W/m2
13:39 27.4 °C 24.5 °C 1006.8 hPa SSE 9.4 km/h 24.1 km/h 83.8% 0.0 mm 527 W/m2
13:44 27.3 °C 24.5 °C 1006.8 hPa South 9.7 km/h 24.1 km/h 84.4% 0.0 mm 596 W/m2
13:49 26.8 °C 24 °C 1006.4 hPa South 10.3 km/h 24.1 km/h 84.6% 0.0 mm 571 W/m2
13:54 26.8 °C 23.6 °C 1006.4 hPa South 9.9 km/h 20.1 km/h 82.8% 0.0 mm 574 W/m2
13:59 26.9 °C 23.6 °C 1006.4 hPa SSE 8.8 km/h 20.1 km/h 81.6% 0.0 mm 582 W/m2
14:04 27.2 °C 23.8 °C 1006.4 hPa South 10.3 km/h 20.1 km/h 81.7% 0.0 mm 552 W/m2
14:09 28 °C 24.4 °C 1006.4 hPa SSE 9.3 km/h 20.1 km/h 81.2% 0.0 mm 585 W/m2
14:14 28.1 °C 24.6 °C 1006.4 hPa South 5.6 km/h 20.1 km/h 81.3% 0.0 mm 610 W/m2
14:19 28.2 °C 24.4 °C 1006.4 hPa South 6 km/h 20.1 km/h 80.2% 0.0 mm 564 W/m2
14:24 28.2 °C 24.7 °C 1006.1 hPa SSE 8.5 km/h 20.1 km/h 81.4% 0.0 mm 580 W/m2
14:29 27.7 °C 24.4 °C 1006.1 hPa SSW 8.6 km/h 24.1 km/h 82.9% 0.0 mm 499 W/m2
14:34 27.6 °C 24.4 °C 1006.1 hPa South 7.9 km/h 24.1 km/h 83.2% 0.0 mm 565 W/m2
14:39 27.6 °C 24.4 °C 1005.8 hPa South 8.5 km/h 24.1 km/h 83% 0.0 mm 534 W/m2
14:44 27.7 °C 24.4 °C 1005.8 hPa SSE 8.8 km/h 20.1 km/h 82.3% 0.0 mm 548 W/m2
14:49 28.1 °C 24.8 °C 1005.8 hPa SSE 9 km/h 20.1 km/h 82.6% 0.0 mm 551 W/m2
14:54 28.2 °C 25.1 °C 1005.8 hPa SSE 9.3 km/h 20.1 km/h 83.4% 0.0 mm 538 W/m2
14:59 28.2 °C 25 °C 1005.8 hPa SSE 8.1 km/h 20.1 km/h 83.1% 0.0 mm 527 W/m2
15:04 28.2 °C 25 °C 1005.8 hPa South 9.9 km/h 20.1 km/h 83.2% 0.0 mm 527 W/m2
15:09 28.2 °C 25.2 °C 1005.8 hPa South 11.5 km/h 24.1 km/h 83.9% 0.0 mm 542 W/m2
15:14 28.2 °C 25.2 °C 1005.8 hPa South 9.4 km/h 20.1 km/h 83.8% 0.0 mm 538 W/m2
15:19 28.1 °C 25.1 °C 1005.8 hPa South 11.3 km/h 20.1 km/h 84% 0.0 mm 529 W/m2
15:24 28.1 °C 24.8 °C 1005.4 hPa South 8.9 km/h 20.1 km/h 82.2% 0.0 mm 516 W/m2
15:29 28.5 °C 25 °C 1005.8 hPa SSE 8.3 km/h 20.1 km/h 81.8% 0.0 mm 509 W/m2
15:34 28.7 °C 25.2 °C 1005.8 hPa South 9.5 km/h 20.1 km/h 81.8% 0.0 mm 509 W/m2
15:39 28.7 °C 25.2 °C 1005.4 hPa South 10.1 km/h 24.1 km/h 81.7% 0.0 mm 506 W/m2
15:44 28.7 °C 25.1 °C 1005.4 hPa South 6.4 km/h 20.1 km/h 80.8% 0.0 mm 509 W/m2
15:49 28.8 °C 25.2 °C 1005.4 hPa South 6.5 km/h 16.3 km/h 80.9% 0.0 mm 505 W/m2
15:54 28.9 °C 25.2 °C 1005.4 hPa South 10.2 km/h 24.1 km/h 80.8% 0.0 mm 502 W/m2
15:59 28.8 °C 25.4 °C 1005.4 hPa South 10.3 km/h 24.1 km/h 81.7% 0.0 mm 496 W/m2
16:04 28.9 °C 25.2 °C 1005.1 hPa SSE 7.4 km/h 20.1 km/h 80.8% 0.0 mm 492 W/m2
16:09 28.9 °C 25.2 °C 1005.1 hPa South 7.8 km/h 20.1 km/h 80.6% 0.0 mm 491 W/m2
16:14 29 °C 25.3 °C 1004.7 hPa South 6.8 km/h 16.3 km/h 80.4% 0.0 mm 490 W/m2
16:19 29 °C 25.5 °C 1008.1 hPa SE 12.6 km/h 20.1 km/h 81.7% 0.0 mm 486 W/m2
16:24 28.9 °C 25.4 °C 1004.4 hPa South 9.2 km/h 24.1 km/h 81.4% 0.0 mm 482 W/m2
16:29 28.8 °C 25.3 °C 1004.4 hPa South 9.4 km/h 24.1 km/h 81.3% 0.0 mm 479 W/m2
16:34 28.8 °C 25.1 °C 1004.4 hPa South 5.1 km/h 16.3 km/h 80.7% 0.0 mm 474 W/m2
16:39 28.9 °C 25.1 °C 1004.4 hPa South 9.4 km/h 16.3 km/h 80.2% 0.0 mm 471 W/m2
16:44 29 °C 25.3 °C 1004.4 hPa SSE 7.1 km/h 20.1 km/h 80.7% 0.0 mm 463 W/m2
16:49 29.2 °C 25.6 °C 1004.1 hPa South 7.4 km/h 20.1 km/h 81.2% 0.0 mm 457 W/m2
16:54 29.3 °C 25.7 °C 1004.1 hPa South 8 km/h 20.1 km/h 81.2% 0.0 mm 453 W/m2
16:59 29.2 °C 25.7 °C 1004.1 hPa South 8.1 km/h 24.1 km/h 81.3% 0.0 mm 450 W/m2
17:04 29.1 °C 25.7 °C 1004.1 hPa SSE 10.2 km/h 24.1 km/h 81.9% 0.0 mm 443 W/m2
17:09 28.6 °C 25.4 °C 1003.7 hPa South 11.1 km/h 20.1 km/h 82.6% 0.0 mm 432 W/m2
17:14 28.5 °C 25.1 °C 1003.7 hPa South 7.7 km/h 28 km/h 82.2% 0.0 mm 430 W/m2
17:19 28.5 °C 25.2 °C 1003.4 hPa South 10.9 km/h 28 km/h 82.3% 0.0 mm 429 W/m2
17:24 28.5 °C 25.1 °C 1003.7 hPa South 10 km/h 20.1 km/h 82% 0.0 mm 423 W/m2
17:29 28.6 °C 25.1 °C 1003.7 hPa South 6 km/h 20.1 km/h 81.7% 0.0 mm 419 W/m2
17:34 28.6 °C 25.1 °C 1003.7 hPa South 9.4 km/h 24.1 km/h 81.6% 0.0 mm 410 W/m2
17:39 28.5 °C 25 °C 1003.4 hPa South 11.4 km/h 24.1 km/h 81.7% 0.0 mm 403 W/m2
17:44 28.5 °C 25 °C 1003.4 hPa SSE 9.3 km/h 20.1 km/h 81.3% 0.0 mm 400 W/m2
17:49 28.3 °C 24.8 °C 1003.4 hPa South 11.8 km/h 24.1 km/h 81.7% 0.0 mm 389 W/m2
17:54 28.1 °C 24.9 °C 1003.4 hPa South 11.1 km/h 20.1 km/h 82.9% 0.0 mm 382 W/m2
17:59 28.1 °C 24.8 °C 1003.4 hPa South 8.8 km/h 28 km/h 82.2% 0.0 mm 370 W/m2
18:04 28.1 °C 24.9 °C 1003.4 hPa SSE 8.6 km/h 28 km/h 83% 0.0 mm 353 W/m2
18:09 27.8 °C 24.6 °C 1003.4 hPa South 10 km/h 24.1 km/h 83% 0.0 mm 302 W/m2
18:14 27.6 °C 24.4 °C 1003.4 hPa South 8.5 km/h 20.1 km/h 83% 0.0 mm 336 W/m2
18:19 27.5 °C 24.5 °C 1003.4 hPa South 11.7 km/h 24.1 km/h 83.6% 0.0 mm 332 W/m2
18:24 27.5 °C 24.6 °C 1003.4 hPa South 11.3 km/h 24.1 km/h 84% 0.0 mm 97 W/m2
18:29 27.2 °C 24.5 °C 1003.4 hPa South 9 km/h 20.1 km/h 85% 0.0 mm 91 W/m2
18:34 26.9 °C 24.2 °C 1003.4 hPa South 10.3 km/h 20.1 km/h 85.1% 0.0 mm 87 W/m2
18:39 26.9 °C 24.4 °C 1003.4 hPa South 10.4 km/h 24.1 km/h 86.1% 0.0 mm 84 W/m2
18:44 26.8 °C 24.5 °C 1003.4 hPa South 8.3 km/h 16.3 km/h 87% 0.0 mm 82 W/m2
18:49 26.5 °C 24.2 °C 1003.4 hPa South 7.3 km/h 20.1 km/h 87% 0.0 mm 80 W/m2
18:54 26.2 °C 24.1 °C 1003.4 hPa SSE 9.4 km/h 24.1 km/h 88% 0.0 mm 77 W/m2
18:59 26.2 °C 24.1 °C 1003.4 hPa South 7.4 km/h 20.1 km/h 88% 0.0 mm 74 W/m2
19:04 26.2 °C 24.1 °C 1003.4 hPa South 5 km/h 16.3 km/h 88% 0.0 mm 71 W/m2
19:09 26 °C 24 °C 1003.4 hPa South 6.6 km/h 20.1 km/h 88.7% 0.0 mm 68 W/m2
19:14 25.7 °C 23.7 °C 1003.4 hPa South 7.4 km/h 20.1 km/h 89.1% 0.0 mm 65 W/m2
19:19 25.6 °C 23.8 °C 1003.4 hPa South 9.4 km/h 20.1 km/h 90% 0.0 mm 62 W/m2
19:24 25.6 °C 23.8 °C 1003.7 hPa South 8.3 km/h 20.1 km/h 90.3% 0.0 mm 60 W/m2
19:29 25.4 °C 23.8 °C 1003.7 hPa South 5.8 km/h 16.3 km/h 91% 0.0 mm 57 W/m2
19:34 25.1 °C 23.5 °C 1004.1 hPa South 5.7 km/h 20.1 km/h 91.2% 0.0 mm 53 W/m2
19:39 25 °C 23.6 °C 1004.1 hPa South 6.3 km/h 20.1 km/h 92% 0.0 mm 51 W/m2
19:44 25 °C 23.7 °C 1004.1 hPa South 3.6 km/h 16.3 km/h 92.6% 0.0 mm 47 W/m2
19:49 24.9 °C 23.7 °C 1004.1 hPa South 1 km/h 7.9 km/h 93% 0.0 mm 44 W/m2
19:54 24.6 °C 23.5 °C 1004.1 hPa SSE 1.6 km/h 7.9 km/h 93.3% 0.0 mm 40 W/m2
19:59 24.6 °C 23.6 °C 0.0 hPa South 2.8 km/h 7.9 km/h 94% 0.0 mm 36 W/m2
20:04 24.6 °C 23.7 °C 0.0 hPa South 2.3 km/h 7.9 km/h 94.9% 0.0 mm 31 W/m2
20:09 24.4 °C 23.6 °C 0.0 hPa South 2.5 km/h 12.2 km/h 95.6% 0.0 mm 22 W/m2
20:14 24 °C 23.3 °C 1004.1 hPa South 3 km/h 12.2 km/h 96% 0.0 mm 13 W/m2
20:19 24 °C 23.3 °C 1004.4 hPa SSW 1.4 km/h 7.9 km/h 96% 0.0 mm 10 W/m2
20:24 24 °C 23.3 °C 1004.4 hPa Calm   4 km/h 96% 0.0 mm 8 W/m2
20:29 23.9 °C 23.4 °C 1004.4 hPa Calm     97% 0.0 mm 6 W/m2
20:34 23.5 °C 23.1 °C 1004.4 hPa Calm     97.2% 0.0 mm 5 W/m2
20:39 23.5 °C 23.2 °C 1004.4 hPa Calm     98% 0.0 mm 2 W/m2
20:44 23.4 °C 23.2 °C 1004.4 hPa Calm     99% 0.0 mm 0 W/m2
20:49 23.2 °C 23.1 °C 1004.4 hPa Calm     99% 0.0 mm 0 W/m2
20:54 22.8 °C 22.6 °C 1004.4 hPa South 1.2 km/h 7.9 km/h 99% 0.0 mm 0 W/m2
20:59 22.9 °C 22.7 °C 1004.4 hPa South 0.8 km/h 7.9 km/h 98.8% 0.0 mm 0 W/m2
21:04 22.9 °C 22.7 °C 1004.4 hPa Calm   7.9 km/h 98.4% 0.0 mm 0 W/m2
21:09 22.9 °C 22.7 °C 1004.4 hPa Calm     99% 0.0 mm 0 W/m2
21:14 22.7 °C 22.2 °C 1004.4 hPa Calm     96.9% 0.0 mm 0 W/m2
21:19 22.8 °C 22.1 °C 1004.4 hPa Calm   4 km/h 96.2% 0.0 mm 0 W/m2
21:24 22.8 °C 22.6 °C 1004.4 hPa Calm     99% 0.0 mm 0 W/m2
21:29 22.7 °C 22.5 °C 1004.4 hPa Calm     99% 0.0 mm 0 W/m2
21:34 22.3 °C 21.7 °C 1004.4 hPa Calm     96.3% 0.0 mm 0 W/m2
21:39 22.3 °C 21.3 °C 1004.4 hPa South 1.2 km/h 7.9 km/h 94.1% 0.0 mm 0 W/m2
21:44 22.4 °C 21.3 °C 1004.4 hPa South 0.6 km/h 7.9 km/h 93.2% 0.0 mm 0 W/m2
21:49 22.6 °C 21.2 °C 1004.7 hPa SSW 0.2 km/h 4 km/h 92% 0.0 mm 0 W/m2
21:54 22.9 °C 21.7 °C 1004.4 hPa Calm     92.9% 0.0 mm 0 W/m2
21:59 22.9 °C 21.8 °C 1004.7 hPa Calm   4 km/h 93.3% 0.0 mm 0 W/m2
22:04 22.9 °C 21.7 °C 1004.7 hPa Calm   4 km/h 93% 0.0 mm 0 W/m2
22:09 22.8 °C 21.9 °C 1004.7 hPa Calm     94.9% 0.0 mm 0 W/m2
22:14 22.7 °C 21.9 °C 1005.1 hPa South 0.4 km/h 4 km/h 95% 0.0 mm 0 W/m2
22:19 22.7 °C 22 °C 1005.1 hPa Calm     96.1% 0.0 mm 0 W/m2
22:24 22.6 °C 22.1 °C 1005.1 hPa South 0.6 km/h 7.9 km/h 97% 0.0 mm 0 W/m2
22:29 22.6 °C 21.9 °C 1005.1 hPa South 1.2 km/h 7.9 km/h 96% 0.0 mm 0 W/m2
22:34 22.6 °C 21.9 °C 1005.1 hPa South 1.8 km/h 7.9 km/h 96% 0.0 mm 0 W/m2
22:39 22.6 °C 21.9 °C 1004.7 hPa South 3.9 km/h 12.2 km/h 96% 0.0 mm 0 W/m2
22:44 22.6 °C 21.8 °C 1005.1 hPa South 1.6 km/h 12.2 km/h 95.6% 0.0 mm 0 W/m2
22:49 22.6 °C 21.8 °C 1005.1 hPa SSE 2.6 km/h 12.2 km/h 95% 0.0 mm 0 W/m2
22:54 22.6 °C 21.7 °C 1005.4 hPa South 3.7 km/h 12.2 km/h 94.7% 0.0 mm 0 W/m2
22:59 22.6 °C 21.6 °C 1005.1 hPa South 4.8 km/h 16.3 km/h 94% 0.0 mm 0 W/m2
23:04 22.7 °C 21.7 °C 1005.4 hPa SSE 5.6 km/h 12.2 km/h 94% 0.0 mm 0 W/m2
23:09 22.7 °C 21.6 °C 1005.1 hPa South 3.4 km/h 12.2 km/h 93.6% 0.0 mm 0 W/m2
23:14 22.7 °C 21.5 °C 1005.4 hPa South 5.8 km/h 16.3 km/h 93.1% 0.0 mm 0 W/m2
23:19 22.7 °C 21.5 °C 1005.4 hPa South 4.7 km/h 12.2 km/h 92.9% 0.0 mm 0 W/m2
23:24 22.7 °C 21.5 °C 1005.8 hPa SSW 5.9 km/h 16.3 km/h 93% 0.0 mm 0 W/m2
23:29 22.7 °C 21.5 °C 1005.8 hPa South 5.5 km/h 16.3 km/h 93% 0.0 mm 0 W/m2
23:34 22.6 °C 21.4 °C 1005.8 hPa South 4.5 km/h 12.2 km/h 93% 0.0 mm 0 W/m2
23:39 22.6 °C 21.5 °C 1005.8 hPa South 1.9 km/h 12.2 km/h 93.6% 0.0 mm 0 W/m2
23:44 22.6 °C 21.6 °C 1005.8 hPa South 1.5 km/h 7.9 km/h 94% 0.0 mm 0 W/m2
23:49 22.6 °C 21.6 °C 1005.8 hPa South 3 km/h 12.2 km/h 94% 0.0 mm 0 W/m2
23:54 22.6 °C 21.6 °C 1005.8 hPa South 2.4 km/h 12.2 km/h 94% 0.0 mm 0 W/m2
23:59 22.6 °C 21.6 °C 1005.8 hPa South 1.8 km/h 16.3 km/h 94% 0.0 mm 0 W/m2
Juneau County Weather
Compliments of Weather Underground - 2 mb